sensor_id;sensor_type;location;lat;lon;timestamp;pressure;altitude;pressure_sealevel;temperature;humidity
20860;BME280;10590;48.154;11.514;2022-12-26T00:02:37;95772.75;;;7.42;73.31
20860;BME280;10590;48.154;11.514;2022-12-26T00:07:40;95758.31;;;7.62;72.20
20860;BME280;10590;48.154;11.514;2022-12-26T00:13:12;95765.31;;;7.72;72.35
20860;BME280;10590;48.154;11.514;2022-12-26T00:18:13;95772.91;;;7.78;71.77
20860;BME280;10590;48.154;11.514;2022-12-26T00:23:16;95773.28;;;7.72;72.47
20860;BME280;10590;48.154;11.514;2022-12-26T00:28:18;95766.16;;;7.86;71.27
20860;BME280;10590;48.154;11.514;2022-12-26T00:33:19;95776.59;;;7.96;71.07
20860;BME280;10590;48.154;11.514;2022-12-26T00:38:22;95763.31;;;7.96;70.49
20860;BME280;10590;48.154;11.514;2022-12-26T00:43:24;95767.16;;;7.90;69.99
20860;BME280;10590;48.154;11.514;2022-12-26T00:48:26;95760.97;;;7.62;70.81
20860;BME280;10590;48.154;11.514;2022-12-26T00:53:28;95773.19;;;7.63;70.78
20860;BME280;10590;48.154;11.514;2022-12-26T00:58:30;95773.06;;;7.54;71.02
20860;BME280;10590;48.154;11.514;2022-12-26T01:03:32;95764.84;;;7.37;71.77
20860;BME280;10590;48.154;11.514;2022-12-26T01:08:35;95792.97;;;7.38;72.10
20860;BME280;10590;48.154;11.514;2022-12-26T01:13:37;95783.69;;;7.22;72.41
20860;BME280;10590;48.154;11.514;2022-12-26T01:18:41;95791.00;;;7.11;72.67
20860;BME280;10590;48.154;11.514;2022-12-26T01:23:44;95787.78;;;7.14;72.80
20860;BME280;10590;48.154;11.514;2022-12-26T01:28:46;95787.00;;;7.14;72.27
20860;BME280;10590;48.154;11.514;2022-12-26T01:33:48;95803.69;;;7.14;71.95
20860;BME280;10590;48.154;11.514;2022-12-26T01:38:51;95803.81;;;6.85;72.96
20860;BME280;10590;48.154;11.514;2022-12-26T01:43:55;95797.72;;;6.66;73.94
20860;BME280;10590;48.154;11.514;2022-12-26T01:48:59;95806.38;;;6.53;74.13
20860;BME280;10590;48.154;11.514;2022-12-26T01:54:04;95796.34;;;6.50;74.16
20860;BME280;10590;48.154;11.514;2022-12-26T01:59:10;95813.63;;;6.66;73.56
20860;BME280;10590;48.154;11.514;2022-12-26T02:04:16;95824.75;;;6.68;73.16
20860;BME280;10590;48.154;11.514;2022-12-26T02:09:39;95825.38;;;6.60;73.63
20860;BME280;10590;48.154;11.514;2022-12-26T02:14:42;95820.13;;;6.55;73.16
20860;BME280;10590;48.154;11.514;2022-12-26T02:19:49;95816.47;;;6.51;73.52
20860;BME280;10590;48.154;11.514;2022-12-26T02:25:19;95814.47;;;6.43;73.74
20860;BME280;10590;48.154;11.514;2022-12-26T02:30:33;95815.72;;;6.26;73.95
20860;BME280;10590;48.154;11.514;2022-12-26T02:35:48;95791.63;;;5.99;75.32
20860;BME280;10590;48.154;11.514;2022-12-26T02:41:02;95807.38;;;6.14;74.74
20860;BME280;10590;48.154;11.514;2022-12-26T02:46:13;95803.88;;;6.19;73.83
20860;BME280;10590;48.154;11.514;2022-12-26T02:51:46;95802.16;;;6.52;72.32
20860;BME280;10590;48.154;11.514;2022-12-26T02:57:10;95795.22;;;6.75;71.99
20860;BME280;10590;48.154;11.514;2022-12-26T03:02:35;95794.69;;;6.96;70.43
20860;BME280;10590;48.154;11.514;2022-12-26T03:07:57;95803.06;;;7.03;69.99
20860;BME280;10590;48.154;11.514;2022-12-26T03:13:21;95787.00;;;7.14;70.09
20860;BME280;10590;48.154;11.514;2022-12-26T03:18:27;95796.44;;;7.20;69.49
20860;BME280;10590;48.154;11.514;2022-12-26T03:23:30;95800.41;;;7.22;69.35
20860;BME280;10590;48.154;11.514;2022-12-26T03:28:32;95797.19;;;7.07;69.30
20860;BME280;10590;48.154;11.514;2022-12-26T03:33:37;95794.53;;;7.07;69.15
20860;BME280;10590;48.154;11.514;2022-12-26T03:39:03;95805.72;;;7.03;69.17
20860;BME280;10590;48.154;11.514;2022-12-26T03:44:19;95802.56;;;7.01;69.46
20860;BME280;10590;48.154;11.514;2022-12-26T03:49:43;95795.75;;;6.95;69.78
20860;BME280;10590;48.154;11.514;2022-12-26T03:55:11;95798.44;;;6.90;70.04
20860;BME280;10590;48.154;11.514;2022-12-26T04:00:32;95792.72;;;6.83;70.12
20860;BME280;10590;48.154;11.514;2022-12-26T04:05:56;95801.81;;;6.77;70.77
20860;BME280;10590;48.154;11.514;2022-12-26T04:11:18;95807.84;;;6.83;70.55
20860;BME280;10590;48.154;11.514;2022-12-26T04:16:43;95819.25;;;6.83;70.18
20860;BME280;10590;48.154;11.514;2022-12-26T04:22:06;95827.41;;;6.68;70.69
20860;BME280;10590;48.154;11.514;2022-12-26T04:27:28;95832.63;;;6.73;70.55
20860;BME280;10590;48.154;11.514;2022-12-26T04:32:54;95832.56;;;6.78;70.98
20860;BME280;10590;48.154;11.514;2022-12-26T04:38:19;95825.91;;;6.81;69.99
20860;BME280;10590;48.154;11.514;2022-12-26T04:43:40;95825.13;;;6.80;70.03
20860;BME280;10590;48.154;11.514;2022-12-26T04:49:04;95825.09;;;6.61;70.51
20860;BME280;10590;48.154;11.514;2022-12-26T04:54:25;95825.50;;;6.50;70.60
20860;BME280;10590;48.154;11.514;2022-12-26T04:59:27;95819.72;;;6.66;70.93
20860;BME280;10590;48.154;11.514;2022-12-26T05:04:29;95825.66;;;6.58;71.16
20860;BME280;10590;48.154;11.514;2022-12-26T05:09:51;95828.97;;;6.69;70.45
20860;BME280;10590;48.154;11.514;2022-12-26T05:14:54;95831.78;;;6.78;70.32
20860;BME280;10590;48.154;11.514;2022-12-26T05:19:56;95830.75;;;6.55;71.35
20860;BME280;10590;48.154;11.514;2022-12-26T05:25:19;95842.75;;;6.47;71.19
20860;BME280;10590;48.154;11.514;2022-12-26T05:30:39;95842.81;;;6.42;71.78
20860;BME280;10590;48.154;11.514;2022-12-26T05:35:40;95850.44;;;6.49;71.61
20860;BME280;10590;48.154;11.514;2022-12-26T05:40:44;95838.19;;;6.53;71.06
20860;BME280;10590;48.154;11.514;2022-12-26T05:45:45;95856.97;;;6.56;71.50
20860;BME280;10590;48.154;11.514;2022-12-26T05:50:47;95846.88;;;6.58;71.09
20860;BME280;10590;48.154;11.514;2022-12-26T05:55:50;95861.28;;;6.71;70.90
20860;BME280;10590;48.154;11.514;2022-12-26T06:00:51;95856.50;;;6.73;70.80
20860;BME280;10590;48.154;11.514;2022-12-26T06:05:55;95861.00;;;6.72;71.06
20860;BME280;10590;48.154;11.514;2022-12-26T06:11:02;95858.66;;;6.71;70.91
20860;BME280;10590;48.154;11.514;2022-12-26T06:16:04;95850.91;;;6.75;70.61
20860;BME280;10590;48.154;11.514;2022-12-26T06:21:09;95838.44;;;6.75;70.56
20860;BME280;10590;48.154;11.514;2022-12-26T06:26:12;95852.34;;;6.86;70.89
20860;BME280;10590;48.154;11.514;2022-12-26T06:31:16;95841.94;;;6.94;70.55
20860;BME280;10590;48.154;11.514;2022-12-26T06:36:21;95843.28;;;7.29;69.32
20860;BME280;10590;48.154;11.514;2022-12-26T06:41:25;95823.84;;;7.34;69.30
20860;BME280;10590;48.154;11.514;2022-12-26T06:46:27;95811.81;;;7.23;70.42
20860;BME280;10590;48.154;11.514;2022-12-26T06:51:28;95831.34;;;7.46;70.67
20860;BME280;10590;48.154;11.514;2022-12-26T06:56:32;95829.25;;;7.61;69.96
20860;BME280;10590;48.154;11.514;2022-12-26T07:01:34;95839.69;;;7.72;69.89
20860;BME280;10590;48.154;11.514;2022-12-26T07:06:36;95840.63;;;7.81;70.05
20860;BME280;10590;48.154;11.514;2022-12-26T07:11:41;95850.38;;;7.85;69.75
20860;BME280;10590;48.154;11.514;2022-12-26T07:16:43;95822.94;;;7.57;69.60
20860;BME280;10590;48.154;11.514;2022-12-26T07:21:45;95833.94;;;7.51;69.88
20860;BME280;10590;48.154;11.514;2022-12-26T07:26:48;95836.31;;;7.33;69.98
20860;BME280;10590;48.154;11.514;2022-12-26T07:31:50;95844.00;;;7.35;69.25
20860;BME280;10590;48.154;11.514;2022-12-26T07:36:52;95847.72;;;7.34;68.96
20860;BME280;10590;48.154;11.514;2022-12-26T07:41:55;95839.59;;;7.44;68.57
20860;BME280;10590;48.154;11.514;2022-12-26T07:46:59;95858.13;;;7.49;68.49
20860;BME280;10590;48.154;11.514;2022-12-26T07:52:01;95847.78;;;7.48;68.01
20860;BME280;10590;48.154;11.514;2022-12-26T07:57:05;95842.44;;;7.66;67.53
20860;BME280;10590;48.154;11.514;2022-12-26T08:02:08;95857.19;;;7.91;67.19
20860;BME280;10590;48.154;11.514;2022-12-26T08:07:10;95853.09;;;8.13;67.10
20860;BME280;10590;48.154;11.514;2022-12-26T08:12:13;95855.41;;;8.33;66.24
20860;BME280;10590;48.154;11.514;2022-12-26T08:17:14;95858.91;;;8.28;66.75
20860;BME280;10590;48.154;11.514;2022-12-26T08:22:16;95843.59;;;8.39;65.68
20860;BME280;10590;48.154;11.514;2022-12-26T08:27:36;95849.56;;;9.00;64.70
20860;BME280;10590;48.154;11.514;2022-12-26T08:32:38;95844.31;;;9.08;64.59
20860;BME280;10590;48.154;11.514;2022-12-26T08:37:39;95837.91;;;9.45;63.21
20860;BME280;10590;48.154;11.514;2022-12-26T08:42:42;95843.72;;;11.11;58.80
20860;BME280;10590;48.154;11.514;2022-12-26T08:47:44;95824.56;;;11.52;57.11
20860;BME280;10590;48.154;11.514;2022-12-26T08:52:45;95843.38;;;12.25;55.56
20860;BME280;10590;48.154;11.514;2022-12-26T08:57:48;95834.63;;;11.81;55.13
20860;BME280;10590;48.154;11.514;2022-12-26T09:02:50;95841.00;;;12.23;56.02
20860;BME280;10590;48.154;11.514;2022-12-26T09:07:52;95824.88;;;13.08;52.63
20860;BME280;10590;48.154;11.514;2022-12-26T09:12:55;95819.97;;;12.51;53.99
20860;BME280;10590;48.154;11.514;2022-12-26T09:17:57;95824.63;;;12.63;54.42
20860;BME280;10590;48.154;11.514;2022-12-26T09:22:58;95823.31;;;12.98;53.05
20860;BME280;10590;48.154;11.514;2022-12-26T09:28:01;95831.59;;;12.55;53.52
20860;BME280;10590;48.154;11.514;2022-12-26T09:33:03;95824.75;;;12.96;53.74
20860;BME280;10590;48.154;11.514;2022-12-26T09:38:07;95823.84;;;12.92;51.97
20860;BME280;10590;48.154;11.514;2022-12-26T09:43:30;95831.22;;;12.95;52.65
20860;BME280;10590;48.154;11.514;2022-12-26T09:48:38;95839.88;;;12.71;52.00
20860;BME280;10590;48.154;11.514;2022-12-26T09:53:45;95830.06;;;13.34;51.20
20860;BME280;10590;48.154;11.514;2022-12-26T09:58:52;95840.00;;;13.33;50.62
20860;BME280;10590;48.154;11.514;2022-12-26T10:03:56;95830.56;;;13.48;49.94
20860;BME280;10590;48.154;11.514;2022-12-26T10:09:18;95825.03;;;13.86;49.00
20860;BME280;10590;48.154;11.514;2022-12-26T10:14:36;95812.84;;;13.56;49.51
20860;BME280;10590;48.154;11.514;2022-12-26T10:20:01;95801.09;;;14.26;48.02
20860;BME280;10590;48.154;11.514;2022-12-26T10:25:13;95801.38;;;14.58;46.42
20860;BME280;10590;48.154;11.514;2022-12-26T10:30:22;95797.78;;;14.54;46.02
20860;BME280;10590;48.154;11.514;2022-12-26T10:35:29;95792.34;;;14.75;46.24
20860;BME280;10590;48.154;11.514;2022-12-26T10:40:36;95801.41;;;14.13;47.31
20860;BME280;10590;48.154;11.514;2022-12-26T10:45:43;95801.28;;;14.79;46.39
20860;BME280;10590;48.154;11.514;2022-12-26T10:50:48;95804.84;;;14.46;47.13
20860;BME280;10590;48.154;11.514;2022-12-26T10:55:50;95806.16;;;14.40;47.92
20860;BME280;10590;48.154;11.514;2022-12-26T11:00:55;95796.06;;;14.13;48.61
20860;BME280;10590;48.154;11.514;2022-12-26T11:06:03;95801.81;;;13.90;49.14
20860;BME280;10590;48.154;11.514;2022-12-26T11:11:06;95788.44;;;14.02;49.08
20860;BME280;10590;48.154;11.514;2022-12-26T11:16:10;95800.66;;;13.79;49.68
20860;BME280;10590;48.154;11.514;2022-12-26T11:21:20;95811.16;;;13.84;49.62
20860;BME280;10590;48.154;11.514;2022-12-26T11:26:24;95799.16;;;13.69;50.02
20860;BME280;10590;48.154;11.514;2022-12-26T11:31:28;95802.19;;;13.47;50.46
20860;BME280;10590;48.154;11.514;2022-12-26T11:36:31;95812.53;;;13.36;50.52
20860;BME280;10590;48.154;11.514;2022-12-26T11:41:35;95817.91;;;13.36;50.31
20860;BME280;10590;48.154;11.514;2022-12-26T11:46:43;95807.56;;;13.47;50.68
20860;BME280;10590;48.154;11.514;2022-12-26T11:51:48;95811.44;;;13.37;51.17
20860;BME280;10590;48.154;11.514;2022-12-26T11:57:00;95817.41;;;13.14;52.12
20860;BME280;10590;48.154;11.514;2022-12-26T12:02:16;95852.00;;;12.98;54.88
20860;BME280;10590;48.154;11.514;2022-12-26T12:07:40;95840.28;;;12.82;56.26
20860;BME280;10590;48.154;11.514;2022-12-26T12:12:47;95869.03;;;12.64;57.80
20860;BME280;10590;48.154;11.514;2022-12-26T12:18:01;95875.31;;;12.21;59.90
20860;BME280;10590;48.154;11.514;2022-12-26T12:23:19;95902.88;;;11.70;63.80
20860;BME280;10590;48.154;11.514;2022-12-26T12:28:39;95912.91;;;10.81;71.06
20860;BME280;10590;48.154;11.514;2022-12-26T12:33:49;95891.75;;;10.23;77.16
20860;BME280;10590;48.154;11.514;2022-12-26T12:39:00;95912.28;;;10.00;78.67
20860;BME280;10590;48.154;11.514;2022-12-26T12:44:04;95925.00;;;9.81;80.59
20860;BME280;10590;48.154;11.514;2022-12-26T12:49:21;95926.63;;;9.68;80.82
20860;BME280;10590;48.154;11.514;2022-12-26T12:54:51;95936.63;;;9.63;81.09
20860;BME280;10590;48.154;11.514;2022-12-26T13:00:10;95932.38;;;9.62;81.14
20860;BME280;10590;48.154;11.514;2022-12-26T13:05:19;95942.06;;;9.57;80.99
20860;BME280;10590;48.154;11.514;2022-12-26T13:10:26;95962.66;;;9.52;81.93
20860;BME280;10590;48.154;11.514;2022-12-26T13:15:32;95957.28;;;9.30;83.77
20860;BME280;10590;48.154;11.514;2022-12-26T13:20:41;95956.03;;;9.13;85.01
20860;BME280;10590;48.154;11.514;2022-12-26T13:25:46;95967.06;;;9.07;86.13
20860;BME280;10590;48.154;11.514;2022-12-26T13:30:51;95972.09;;;8.94;86.31
20860;BME280;10590;48.154;11.514;2022-12-26T13:35:56;95972.19;;;8.89;86.67
20860;BME280;10590;48.154;11.514;2022-12-26T13:41:01;95981.25;;;8.88;87.07
20860;BME280;10590;48.154;11.514;2022-12-26T13:46:54;95977.53;;;8.89;86.83
20860;BME280;10590;48.154;11.514;2022-12-26T13:51:59;95975.66;;;8.90;86.54
20860;BME280;10590;48.154;11.514;2022-12-26T13:57:35;95979.97;;;8.86;86.84
20860;BME280;10590;48.154;11.514;2022-12-26T14:02:54;95982.03;;;8.75;86.40
20860;BME280;10590;48.154;11.514;2022-12-26T14:08:07;95984.00;;;8.70;86.84
20860;BME280;10590;48.154;11.514;2022-12-26T14:13:29;95994.72;;;8.65;86.45
20860;BME280;10590;48.154;11.514;2022-12-26T14:18:40;96007.50;;;8.62;85.83
20860;BME280;10590;48.154;11.514;2022-12-26T14:23:52;96018.25;;;8.57;86.25
20860;BME280;10590;48.154;11.514;2022-12-26T14:29:00;96030.53;;;8.53;86.84
20860;BME280;10590;48.154;11.514;2022-12-26T14:34:14;96018.81;;;8.54;86.91
20860;BME280;10590;48.154;11.514;2022-12-26T14:39:37;96032.63;;;8.56;87.52
20860;BME280;10590;48.154;11.514;2022-12-26T14:44:42;96024.44;;;8.53;87.17
20860;BME280;10590;48.154;11.514;2022-12-26T14:49:45;96032.66;;;8.38;87.77
20860;BME280;10590;48.154;11.514;2022-12-26T14:54:48;96040.06;;;8.41;87.68
20860;BME280;10590;48.154;11.514;2022-12-26T15:00:13;96039.34;;;8.35;88.40
20860;BME280;10590;48.154;11.514;2022-12-26T15:05:17;96040.28;;;8.25;88.46
20860;BME280;10590;48.154;11.514;2022-12-26T15:10:47;96033.16;;;8.21;87.94
20860;BME280;10590;48.154;11.514;2022-12-26T15:16:15;96025.47;;;8.19;87.95
20860;BME280;10590;48.154;11.514;2022-12-26T15:21:56;96023.91;;;8.18;87.85
20860;BME280;10590;48.154;11.514;2022-12-26T15:27:33;95998.47;;;8.12;88.28
20860;BME280;10590;48.154;11.514;2022-12-26T15:32:41;96016.00;;;8.13;87.17
20860;BME280;10590;48.154;11.514;2022-12-26T15:38:06;96015.78;;;8.10;87.65
20860;BME280;10590;48.154;11.514;2022-12-26T15:43:34;96019.31;;;8.05;87.44
20860;BME280;10590;48.154;11.514;2022-12-26T15:48:51;96014.94;;;7.95;87.81
20860;BME280;10590;48.154;11.514;2022-12-26T15:54:02;96025.88;;;7.94;88.08
20860;BME280;10590;48.154;11.514;2022-12-26T15:59:30;96013.44;;;7.89;87.25
20860;BME280;10590;48.154;11.514;2022-12-26T16:04:40;96016.88;;;7.90;87.10
20860;BME280;10590;48.154;11.514;2022-12-26T16:09:44;96014.09;;;7.81;86.90
20860;BME280;10590;48.154;11.514;2022-12-26T16:14:49;96001.44;;;7.73;86.72
20860;BME280;10590;48.154;11.514;2022-12-26T16:20:15;96000.72;;;7.67;87.63
20860;BME280;10590;48.154;11.514;2022-12-26T16:25:20;95988.00;;;7.64;87.33
20860;BME280;10590;48.154;11.514;2022-12-26T16:30:26;95960.00;;;7.53;87.49
20860;BME280;10590;48.154;11.514;2022-12-26T16:35:31;95955.13;;;7.60;87.17
20860;BME280;10590;48.154;11.514;2022-12-26T16:40:41;95977.44;;;7.59;87.01
20860;BME280;10590;48.154;11.514;2022-12-26T16:45:45;95990.50;;;7.56;87.25
20860;BME280;10590;48.154;11.514;2022-12-26T16:50:50;95965.38;;;7.48;87.52
20860;BME280;10590;48.154;11.514;2022-12-26T16:55:56;95955.84;;;7.47;88.29
20860;BME280;10590;48.154;11.514;2022-12-26T17:01:04;95955.56;;;7.49;88.62
20860;BME280;10590;48.154;11.514;2022-12-26T17:06:10;95939.63;;;7.49;87.50
20860;BME280;10590;48.154;11.514;2022-12-26T17:11:13;95967.91;;;7.58;87.28
20860;BME280;10590;48.154;11.514;2022-12-26T17:16:16;95948.66;;;7.48;87.64
20860;BME280;10590;48.154;11.514;2022-12-26T17:21:23;95979.38;;;7.54;87.22
20860;BME280;10590;48.154;11.514;2022-12-26T17:26:28;95984.97;;;7.52;87.32
20860;BME280;10590;48.154;11.514;2022-12-26T17:31:34;95990.28;;;7.52;87.36
20860;BME280;10590;48.154;11.514;2022-12-26T17:36:38;95970.41;;;7.50;87.79
20860;BME280;10590;48.154;11.514;2022-12-26T17:41:48;95995.03;;;7.55;87.82
20860;BME280;10590;48.154;11.514;2022-12-26T17:46:52;95990.13;;;7.44;87.08
20860;BME280;10590;48.154;11.514;2022-12-26T17:51:53;95998.31;;;7.47;87.26
20860;BME280;10590;48.154;11.514;2022-12-26T17:56:55;95980.75;;;7.51;86.20
20860;BME280;10590;48.154;11.514;2022-12-26T18:01:58;95995.81;;;7.56;85.74
20860;BME280;10590;48.154;11.514;2022-12-26T18:07:00;96001.34;;;7.59;85.43
20860;BME280;10590;48.154;11.514;2022-12-26T18:12:02;95984.63;;;7.59;85.12
20860;BME280;10590;48.154;11.514;2022-12-26T18:17:05;95998.69;;;7.59;85.00
20860;BME280;10590;48.154;11.514;2022-12-26T18:27:16;96006.44;;;7.75;83.45
20860;BME280;10590;48.154;11.514;2022-12-26T18:32:23;95967.97;;;7.72;83.86
20860;BME280;10590;48.154;11.514;2022-12-26T18:37:27;95987.84;;;7.75;83.96
20860;BME280;10590;48.154;11.514;2022-12-26T18:42:29;95997.28;;;7.86;82.54
20860;BME280;10590;48.154;11.514;2022-12-26T18:47:32;95988.59;;;7.80;82.98
20860;BME280;10590;48.154;11.514;2022-12-26T18:52:33;95994.47;;;7.77;82.97
20860;BME280;10590;48.154;11.514;2022-12-26T18:57:35;96017.00;;;7.80;82.66
20860;BME280;10590;48.154;11.514;2022-12-26T19:02:38;96003.22;;;7.78;82.70
20860;BME280;10590;48.154;11.514;2022-12-26T19:07:40;96031.94;;;7.76;81.91
20860;BME280;10590;48.154;11.514;2022-12-26T19:12:42;96010.69;;;7.76;81.32
20860;BME280;10590;48.154;11.514;2022-12-26T19:17:45;96017.00;;;7.80;80.43
20860;BME280;10590;48.154;11.514;2022-12-26T19:22:48;95992.88;;;7.76;79.28
20860;BME280;10590;48.154;11.514;2022-12-26T19:27:51;96007.44;;;7.79;79.01
20860;BME280;10590;48.154;11.514;2022-12-26T19:32:54;96004.53;;;7.80;78.94
20860;BME280;10590;48.154;11.514;2022-12-26T19:37:56;96000.06;;;7.76;78.69
20860;BME280;10590;48.154;11.514;2022-12-26T19:42:58;96005.09;;;7.77;78.59
20860;BME280;10590;48.154;11.514;2022-12-26T19:48:01;96006.22;;;7.71;78.33
20860;BME280;10590;48.154;11.514;2022-12-26T19:53:02;96012.84;;;7.74;77.83
20860;BME280;10590;48.154;11.514;2022-12-26T19:58:04;96024.03;;;7.71;78.02
20860;BME280;10590;48.154;11.514;2022-12-26T20:03:07;96006.50;;;7.51;80.14
20860;BME280;10590;48.154;11.514;2022-12-26T20:08:09;95990.38;;;7.47;79.24
20860;BME280;10590;48.154;11.514;2022-12-26T20:13:11;95999.91;;;7.48;78.83
20860;BME280;10590;48.154;11.514;2022-12-26T20:18:14;95989.44;;;7.57;79.22
20860;BME280;10590;48.154;11.514;2022-12-26T20:23:16;95986.28;;;7.74;77.30
20860;BME280;10590;48.154;11.514;2022-12-26T20:28:17;95986.06;;;7.70;76.47
20860;BME280;10590;48.154;11.514;2022-12-26T20:33:20;95979.59;;;7.76;76.16
20860;BME280;10590;48.154;11.514;2022-12-26T20:38:22;95981.47;;;7.94;74.51
20860;BME280;10590;48.154;11.514;2022-12-26T20:43:25;95982.28;;;7.95;74.13
20860;BME280;10590;48.154;11.514;2022-12-26T20:48:29;95980.25;;;8.06;74.13
20860;BME280;10590;48.154;11.514;2022-12-26T20:53:31;95985.34;;;8.02;74.12
20860;BME280;10590;48.154;11.514;2022-12-26T20:58:33;96016.28;;;8.12;73.60
20860;BME280;10590;48.154;11.514;2022-12-26T21:03:37;96037.34;;;8.08;74.46
20860;BME280;10590;48.154;11.514;2022-12-26T21:08:40;96072.53;;;8.00;75.74
20860;BME280;10590;48.154;11.514;2022-12-26T21:13:44;96161.28;;;6.98;79.52
20860;BME280;10590;48.154;11.514;2022-12-26T21:18:48;96165.09;;;5.89;83.31
20860;BME280;10590;48.154;11.514;2022-12-26T21:23:54;96156.50;;;5.53;86.18
20860;BME280;10590;48.154;11.514;2022-12-26T21:28:57;96168.41;;;5.50;87.23
20860;BME280;10590;48.154;11.514;2022-12-26T21:34:01;96164.44;;;5.48;87.69
20860;BME280;10590;48.154;11.514;2022-12-26T21:39:04;96181.09;;;5.58;88.05
20860;BME280;10590;48.154;11.514;2022-12-26T21:44:06;96180.56;;;5.56;88.29
20860;BME280;10590;48.154;11.514;2022-12-26T21:49:09;96184.47;;;5.79;87.96
20860;BME280;10590;48.154;11.514;2022-12-26T21:54:11;96185.81;;;5.71;88.05
20860;BME280;10590;48.154;11.514;2022-12-26T21:59:30;96196.13;;;5.78;89.19
20860;BME280;10590;48.154;11.514;2022-12-26T22:04:51;96203.25;;;5.83;89.06
20860;BME280;10590;48.154;11.514;2022-12-26T22:09:52;96186.81;;;5.96;88.67
20860;BME280;10590;48.154;11.514;2022-12-26T22:14:54;96194.72;;;6.06;88.69
20860;BME280;10590;48.154;11.514;2022-12-26T22:19:57;96201.59;;;6.12;89.38
20860;BME280;10590;48.154;11.514;2022-12-26T22:24:58;96196.78;;;6.19;89.42
20860;BME280;10590;48.154;11.514;2022-12-26T22:30:00;96192.00;;;6.26;89.50
20860;BME280;10590;48.154;11.514;2022-12-26T22:35:04;96197.03;;;6.23;89.62
20860;BME280;10590;48.154;11.514;2022-12-26T22:40:06;96210.25;;;6.33;89.75
20860;BME280;10590;48.154;11.514;2022-12-26T22:45:08;96216.34;;;6.28;90.18
20860;BME280;10590;48.154;11.514;2022-12-26T22:50:14;96216.06;;;6.35;89.48
20860;BME280;10590;48.154;11.514;2022-12-26T22:55:16;96217.66;;;6.36;89.44
20860;BME280;10590;48.154;11.514;2022-12-26T23:00:17;96234.03;;;6.43;89.12
20860;BME280;10590;48.154;11.514;2022-12-26T23:05:21;96230.06;;;6.41;89.24
20860;BME280;10590;48.154;11.514;2022-12-26T23:10:23;96220.28;;;6.36;89.73
20860;BME280;10590;48.154;11.514;2022-12-26T23:15:27;96240.19;;;6.33;90.20
20860;BME280;10590;48.154;11.514;2022-12-26T23:20:30;96242.59;;;6.30;90.53
20860;BME280;10590;48.154;11.514;2022-12-26T23:25:52;96236.19;;;6.36;89.66
20860;BME280;10590;48.154;11.514;2022-12-26T23:30:54;96230.69;;;6.27;89.89
20860;BME280;10590;48.154;11.514;2022-12-26T23:35:57;96244.97;;;6.31;89.68
20860;BME280;10590;48.154;11.514;2022-12-26T23:41:00;96242.34;;;6.26;89.23
20860;BME280;10590;48.154;11.514;2022-12-26T23:46:07;96258.75;;;6.28;90.01
20860;BME280;10590;48.154;11.514;2022-12-26T23:51:10;96255.03;;;6.29;89.83
20860;BME280;10590;48.154;11.514;2022-12-26T23:56:11;96261.69;;;6.27;89.67
